createdAt,value
2023-08-31T00:00:06.053Z,100114.09
2023-08-31T00:00:29.860Z,100116.23
2023-08-31T00:00:55.183Z,100118.21
2023-08-31T00:01:18.036Z,100117.20
2023-08-31T00:01:40.656Z,100115.09
2023-08-31T00:02:03.104Z,100115.84
2023-08-31T00:02:25.804Z,100117.16
2023-08-31T00:02:48.455Z,100119.85
2023-08-31T00:03:14.334Z,100122.86
2023-08-31T00:03:37.183Z,100119.85
2023-08-31T00:04:00.880Z,100120.61
2023-08-31T00:04:23.367Z,100120.12
2023-08-31T00:04:45.960Z,100120.73
2023-08-31T00:05:08.839Z,100119.25
2023-08-31T00:05:31.904Z,100117.97
2023-08-31T00:05:54.232Z,100116.21
2023-08-31T00:06:16.561Z,100115.89
2023-08-31T00:06:38.874Z,100120.39
2023-08-31T00:07:01.690Z,100120.23
2023-08-31T00:07:24.160Z,100117.84
2023-08-31T00:07:47.659Z,100117.15
2023-08-31T00:08:10.371Z,100114.48
2023-08-31T00:08:34.189Z,100117.52
2023-08-31T00:08:56.702Z,100115.70
2023-08-31T00:09:20.363Z,100113.43
2023-08-31T00:09:42.825Z,100117.48
2023-08-31T00:10:10.741Z,100119.88
2023-08-31T00:10:33.393Z,100116.16
2023-08-31T00:10:56.395Z,100116.95
2023-08-31T00:11:18.867Z,100116.23
2023-08-31T00:11:41.667Z,100117.61
2023-08-31T00:12:04.680Z,100117.24
2023-08-31T00:12:27.281Z,100119.23
2023-08-31T00:12:50.705Z,100117.00
2023-08-31T00:13:13.702Z,100116.36
2023-08-31T00:13:36.525Z,100111.90
2023-08-31T00:13:58.766Z,100113.52
2023-08-31T00:14:21.042Z,100116.20
2023-08-31T00:14:43.526Z,100116.04
2023-08-31T00:15:06.334Z,100114.37
2023-08-31T00:15:30.030Z,100111.98
2023-08-31T00:15:52.511Z,100115.08
2023-08-31T00:16:14.910Z,100109.77
2023-08-31T00:16:38.231Z,100112.82
2023-08-31T00:17:00.663Z,100111.70
2023-08-31T00:17:23.889Z,100106.84
2023-08-31T00:17:46.543Z,100106.11
2023-08-31T00:18:09.391Z,100104.83
2023-08-31T00:18:31.692Z,100106.55
2023-08-31T00:18:54.420Z,100104.04
2023-08-31T00:19:16.893Z,100104.92
2023-08-31T00:19:39.293Z,100106.48
2023-08-31T00:20:01.689Z,100101.40
2023-08-31T00:20:23.945Z,100106.39
2023-08-31T00:20:46.388Z,100105.23
2023-08-31T00:21:11.418Z,100104.87
2023-08-31T00:21:34.295Z,100105.91
2023-08-31T00:21:56.644Z,100102.77
2023-08-31T00:22:18.906Z,100106.57
2023-08-31T00:22:41.158Z,100102.44
2023-08-31T00:23:03.999Z,100102.61
2023-08-31T00:23:26.248Z,100105.29
2023-08-31T00:23:48.586Z,100104.55
2023-08-31T00:24:11.449Z,100103.27
2023-08-31T00:24:37.050Z,100101.95
2023-08-31T00:24:59.524Z,100104.83
2023-08-31T00:25:21.912Z,100100.55
2023-08-31T00:25:46.889Z,100102.61
2023-08-31T00:26:10.228Z,100103.92
2023-08-31T00:26:32.734Z,100104.21
2023-08-31T00:26:55.186Z,100101.41
2023-08-31T00:27:18.815Z,100102.56
2023-08-31T00:27:42.165Z,100102.77
2023-08-31T00:28:06.391Z,100105.81
2023-08-31T00:28:28.879Z,100104.75
2023-08-31T00:28:51.368Z,100104.26
2023-08-31T00:29:15.547Z,100104.80
2023-08-31T00:29:40.155Z,100104.30
2023-08-31T00:30:03.702Z,100106.66
2023-08-31T00:30:30.877Z,100109.69
2023-08-31T00:30:53.552Z,100109.20
2023-08-31T00:31:16.012Z,100104.48
2023-08-31T00:31:38.580Z,100109.03
2023-08-31T00:32:01.701Z,100106.10
2023-08-31T00:32:24.719Z,100105.61
2023-08-31T00:32:48.839Z,100111.09
2023-08-31T00:33:12.272Z,100108.53
2023-08-31T00:33:34.876Z,100109.16
2023-08-31T00:33:57.129Z,100106.92
2023-08-31T00:34:19.979Z,100107.27
2023-08-31T00:34:42.243Z,100108.20
2023-08-31T00:35:05.118Z,100107.54
2023-08-31T00:35:30.649Z,100108.73
2023-08-31T00:35:53.663Z,100108.48
2023-08-31T00:36:16.310Z,100109.92
2023-08-31T00:36:39.528Z,100110.95
2023-08-31T00:37:02.699Z,100109.84
2023-08-31T00:37:26.229Z,100108.55
2023-08-31T00:37:50.705Z,100108.73
2023-08-31T00:38:13.570Z,100110.70
2023-08-31T00:38:37.168Z,100111.70
2023-08-31T00:38:59.519Z,100113.00
2023-08-31T00:39:22.333Z,100111.98
2023-08-31T00:39:44.951Z,100113.27
2023-08-31T00:40:08.372Z,100115.59
2023-08-31T00:40:32.724Z,100113.33
2023-08-31T00:40:55.576Z,100111.39
2023-08-31T00:41:17.896Z,100113.13
2023-08-31T00:41:40.585Z,100112.10
2023-08-31T00:42:02.974Z,100111.16
2023-08-31T00:42:26.746Z,100114.36
2023-08-31T00:42:49.540Z,100113.46
2023-08-31T00:43:12.235Z,100114.16
2023-08-31T00:43:35.336Z,100114.80
2023-08-31T00:43:57.826Z,100112.15
2023-08-31T00:44:20.839Z,100112.73
2023-08-31T00:44:45.180Z,100112.67
2023-08-31T00:45:08.373Z,100111.28
2023-08-31T00:45:30.727Z,100110.74
2023-08-31T00:45:54.195Z,100110.86
2023-08-31T00:46:17.810Z,100110.28
2023-08-31T00:46:41.897Z,100106.63
2023-08-31T00:47:04.478Z,100112.14
2023-08-31T00:47:26.863Z,100109.27
2023-08-31T00:47:50.842Z,100110.04
2023-08-31T00:48:13.473Z,100108.39
2023-08-31T00:48:35.911Z,100109.14
2023-08-31T00:48:59.191Z,100110.26
2023-08-31T00:49:21.658Z,100109.75
2023-08-31T00:49:44.692Z,100113.82
2023-08-31T00:50:08.533Z,100112.22
2023-08-31T00:50:31.587Z,100113.65
2023-08-31T00:50:53.887Z,100111.02
2023-08-31T00:51:16.524Z,100111.70
2023-08-31T00:51:38.778Z,100112.30
2023-08-31T00:52:01.068Z,100111.98
2023-08-31T00:52:25.822Z,100110.41
2023-08-31T00:52:49.010Z,100114.90
2023-08-31T00:53:12.524Z,100113.00
2023-08-31T00:53:36.598Z,100113.45
2023-08-31T00:54:00.397Z,100107.11
2023-08-31T00:54:23.239Z,100110.73
2023-08-31T00:54:46.043Z,100110.32
2023-08-31T00:55:09.593Z,100111.22
2023-08-31T00:55:33.048Z,100111.02
2023-08-31T00:55:55.493Z,100112.01
2023-08-31T00:56:18.195Z,100110.14
2023-08-31T00:56:40.699Z,100108.58
2023-08-31T00:57:05.163Z,100108.91
2023-08-31T00:57:28.488Z,100109.69
2023-08-31T00:57:51.888Z,100107.63
2023-08-31T00:58:14.376Z,100106.64
2023-08-31T00:58:37.814Z,100110.10
2023-08-31T00:59:00.122Z,100108.61
2023-08-31T00:59:22.618Z,100107.08
2023-08-31T00:59:45.005Z,100107.39
2023-08-31T01:00:09.543Z,100108.49
2023-08-31T01:00:34.755Z,100106.59
2023-08-31T01:01:04.778Z,100109.75
2023-08-31T01:01:44.898Z,100110.30
2023-08-31T01:02:21.795Z,100107.83
2023-08-31T01:02:51.834Z,100113.95
2023-08-31T01:03:14.918Z,100109.75
2023-08-31T01:03:40.854Z,100113.15
2023-08-31T01:04:03.783Z,100111.51
2023-08-31T01:04:28.450Z,100114.38
2023-08-31T01:04:53.777Z,100117.10
2023-08-31T01:05:53.838Z,100117.59
2023-08-31T01:06:42.219Z,100117.11
2023-08-31T01:07:24.693Z,100116.86
2023-08-31T01:07:50.082Z,100120.73
2023-08-31T01:08:15.347Z,100117.43
2023-08-31T01:08:56.516Z,100116.80
2023-08-31T01:09:26.628Z,100118.24
2023-08-31T01:09:48.856Z,100119.23
2023-08-31T01:10:19.980Z,100118.80
2023-08-31T01:10:48.662Z,100122.61
2023-08-31T01:11:18.141Z,100120.52
2023-08-31T01:11:46.464Z,100119.29
2023-08-31T01:12:10.397Z,100118.38
2023-08-31T01:12:41.928Z,100119.61
2023-08-31T01:13:05.415Z,100118.36
2023-08-31T01:13:27.688Z,100118.98
2023-08-31T01:13:52.863Z,100117.98
2023-08-31T01:14:20.358Z,100117.29
2023-08-31T01:14:53.944Z,100115.67
2023-08-31T01:15:17.274Z,100118.91
2023-08-31T01:15:39.768Z,100115.95
2023-08-31T01:16:04.441Z,100115.20
2023-08-31T01:16:27.088Z,100117.30
2023-08-31T01:16:50.148Z,100112.48
2023-08-31T01:17:13.513Z,100109.23
2023-08-31T01:17:38.751Z,100111.56
2023-08-31T01:18:01.916Z,100109.80
2023-08-31T01:18:26.738Z,100110.07
2023-08-31T01:18:49.073Z,100109.87
2023-08-31T01:19:18.202Z,100109.82
2023-08-31T01:19:47.800Z,100110.39
2023-08-31T01:20:11.127Z,100109.86
2023-08-31T01:20:39.710Z,100112.27
2023-08-31T01:21:03.767Z,100110.37
2023-08-31T01:21:26.744Z,100110.86
2023-08-31T01:21:49.145Z,100113.81
2023-08-31T01:22:13.384Z,100111.34
2023-08-31T01:22:42.228Z,100116.44
2023-08-31T01:23:14.985Z,100116.68
2023-08-31T01:23:57.311Z,100115.80
2023-08-31T01:24:19.797Z,100122.83
2023-08-31T01:24:42.064Z,100119.81
2023-08-31T01:25:05.815Z,100118.61
2023-08-31T01:25:28.357Z,100119.27
2023-08-31T01:25:53.150Z,100117.81
2023-08-31T01:26:15.569Z,100117.98
2023-08-31T01:26:37.970Z,100117.73
2023-08-31T01:27:00.372Z,100116.68
2023-08-31T01:27:23.078Z,100116.92
2023-08-31T01:27:45.341Z,100116.10
2023-08-31T01:28:09.052Z,100119.08
2023-08-31T01:28:31.489Z,100116.61
2023-08-31T01:28:54.310Z,100116.52
2023-08-31T01:29:16.603Z,100117.13
2023-08-31T01:29:39.000Z,100120.12
2023-08-31T01:30:01.282Z,100118.75
2023-08-31T01:30:23.895Z,100116.12
2023-08-31T01:30:47.075Z,100116.72
2023-08-31T01:31:10.641Z,100115.27
2023-08-31T01:31:33.192Z,100113.80
2023-08-31T01:31:55.912Z,100116.92
2023-08-31T01:32:18.443Z,100116.95
2023-08-31T01:32:46.393Z,100114.96
2023-08-31T01:33:08.860Z,100116.03
2023-08-31T01:34:09.471Z,100115.27
2023-08-31T01:34:51.490Z,100117.20
2023-08-31T01:35:13.908Z,100117.98
2023-08-31T01:35:39.548Z,100117.48
2023-08-31T01:36:01.810Z,100119.03
2023-08-31T01:36:24.028Z,100119.89
2023-08-31T01:36:48.958Z,100121.23
2023-08-31T01:37:12.478Z,100120.08
2023-08-31T01:37:41.833Z,100120.38
2023-08-31T01:38:04.471Z,100121.86
2023-08-31T01:38:28.707Z,100122.14
2023-08-31T01:38:51.868Z,100120.86
2023-08-31T01:39:14.313Z,100119.10
2023-08-31T01:39:39.923Z,100118.94
2023-08-31T01:40:26.602Z,100120.65
2023-08-31T01:40:55.442Z,100116.43
2023-08-31T01:41:19.109Z,100118.56
2023-08-31T01:41:41.698Z,100119.39
2023-08-31T01:42:04.577Z,100119.55
2023-08-31T01:42:27.189Z,100115.20
2023-08-31T01:42:49.683Z,100118.36
2023-08-31T01:43:12.482Z,100118.03
2023-08-31T01:43:34.979Z,100120.54
2023-08-31T01:43:57.391Z,100118.73
2023-08-31T01:44:19.905Z,100121.94
2023-08-31T01:44:42.238Z,100118.94
2023-08-31T01:45:05.441Z,100121.45
2023-08-31T01:45:28.109Z,100121.61
2023-08-31T01:45:50.539Z,100120.25
2023-08-31T01:46:12.939Z,100122.84
2023-08-31T01:46:35.403Z,100123.58
2023-08-31T01:47:02.963Z,100120.20
2023-08-31T01:47:25.313Z,100121.56
2023-08-31T01:47:48.355Z,100120.66
2023-08-31T01:48:10.864Z,100123.30
2023-08-31T01:48:36.005Z,100122.59
2023-08-31T01:48:58.377Z,100120.70
2023-08-31T01:49:21.287Z,100119.27
2023-08-31T01:49:44.748Z,100119.22
2023-08-31T01:50:07.470Z,100116.42
2023-08-31T01:50:29.817Z,100117.49
2023-08-31T01:50:52.222Z,100113.97
2023-08-31T01:51:14.713Z,100115.65
2023-08-31T01:51:37.125Z,100116.05
2023-08-31T01:51:59.417Z,100117.50
2023-08-31T01:52:22.027Z,100115.73
2023-08-31T01:52:44.508Z,100115.15
2023-08-31T01:53:08.113Z,100118.52
2023-08-31T01:53:30.564Z,100120.00
2023-08-31T01:53:52.938Z,100120.66
2023-08-31T01:54:15.253Z,100118.84
2023-08-31T01:54:38.811Z,100122.76
2023-08-31T01:55:02.179Z,100120.62
2023-08-31T01:55:25.087Z,100121.11
2023-08-31T01:55:47.511Z,100122.76
2023-08-31T01:56:09.924Z,100121.04
2023-08-31T01:56:32.889Z,100122.30
2023-08-31T01:56:55.291Z,100122.10
2023-08-31T01:57:17.592Z,100123.09
2023-08-31T01:57:56.068Z,100120.05
2023-08-31T01:58:24.059Z,100118.89
2023-08-31T01:58:46.464Z,100118.71
2023-08-31T01:59:08.856Z,100118.89
2023-08-31T01:59:31.179Z,100120.13
2023-08-31T01:59:53.513Z,100119.80
2023-08-31T02:00:16.093Z,100120.40
2023-08-31T02:00:39.755Z,100119.13
2023-08-31T02:01:02.688Z,100117.94
2023-08-31T02:01:25.172Z,100120.82
2023-08-31T02:01:47.933Z,100122.74
2023-08-31T02:02:10.406Z,100122.22
2023-08-31T02:02:32.849Z,100124.35
2023-08-31T02:02:55.918Z,100128.30
2023-08-31T02:03:18.738Z,100127.02
2023-08-31T02:03:41.377Z,100126.85
2023-08-31T02:04:04.538Z,100127.85
2023-08-31T02:04:26.930Z,100127.11
2023-08-31T02:04:49.332Z,100128.55
2023-08-31T02:05:11.732Z,100128.83
2023-08-31T02:05:34.128Z,100130.44
2023-08-31T02:05:56.559Z,100132.38
2023-08-31T02:06:18.928Z,100130.00
2023-08-31T02:06:41.322Z,100130.00
2023-08-31T02:07:04.330Z,100134.23
2023-08-31T02:07:26.730Z,100133.66
2023-08-31T02:07:49.187Z,100130.07
2023-08-31T02:08:12.447Z,100133.24
2023-08-31T02:08:34.851Z,100132.79
2023-08-31T02:08:57.266Z,100133.98
2023-08-31T02:09:19.644Z,100129.90
2023-08-31T02:09:41.937Z,100133.03
2023-08-31T02:10:07.434Z,100132.71
2023-08-31T02:10:31.025Z,100130.98
2023-08-31T02:10:55.590Z,100129.25
2023-08-31T02:11:20.939Z,100130.11
2023-08-31T02:11:43.367Z,100128.50
2023-08-31T02:12:05.837Z,100133.18
2023-08-31T02:12:28.242Z,100130.79
2023-08-31T02:12:50.639Z,100128.02
2023-08-31T02:13:13.362Z,100131.27
2023-08-31T02:13:36.048Z,100130.85
2023-08-31T02:13:59.158Z,100132.86
2023-08-31T02:14:21.449Z,100131.14
2023-08-31T02:14:43.955Z,100133.61
2023-08-31T02:15:08.218Z,100133.89
2023-08-31T02:15:31.044Z,100133.10
2023-08-31T02:15:55.781Z,100135.48
2023-08-31T02:16:18.250Z,100136.10
2023-08-31T02:16:40.958Z,100136.13
2023-08-31T02:17:03.958Z,100137.33
2023-08-31T02:17:26.645Z,100137.11
2023-08-31T02:17:49.760Z,100133.64
2023-08-31T02:18:12.077Z,100137.67
2023-08-31T02:18:34.483Z,100137.05
2023-08-31T02:18:56.799Z,100134.86
2023-08-31T02:19:19.097Z,100135.15
2023-08-31T02:19:41.478Z,100135.11
2023-08-31T02:20:05.718Z,100134.92
2023-08-31T02:20:28.418Z,100135.20
2023-08-31T02:20:53.476Z,100135.27
2023-08-31T02:21:15.795Z,100133.45
2023-08-31T02:21:38.201Z,100133.30
2023-08-31T02:22:00.672Z,100132.80
2023-08-31T02:22:22.929Z,100131.86
2023-08-31T02:22:45.362Z,100133.81
2023-08-31T02:23:07.791Z,100132.62
2023-08-31T02:23:30.370Z,100134.27
2023-08-31T02:23:52.758Z,100131.48
2023-08-31T02:24:15.071Z,100131.71
2023-08-31T02:24:37.450Z,100131.42
2023-08-31T02:24:59.855Z,100131.63
2023-08-31T02:25:22.138Z,100130.92
2023-08-31T02:25:44.443Z,100130.34
2023-08-31T02:26:06.840Z,100131.66
2023-08-31T02:26:29.241Z,100134.01
2023-08-31T02:26:51.637Z,100129.23
2023-08-31T02:27:14.287Z,100131.05
2023-08-31T02:27:36.646Z,100129.69
2023-08-31T02:27:59.034Z,100128.86
2023-08-31T02:28:21.302Z,100130.47
2023-08-31T02:28:43.728Z,100128.56
2023-08-31T02:29:05.992Z,100129.63
2023-08-31T02:29:29.221Z,100126.87
2023-08-31T02:29:51.653Z,100127.82
2023-08-31T02:30:14.064Z,100129.61
2023-08-31T02:30:36.337Z,100130.20
2023-08-31T02:31:03.141Z,100128.02
2023-08-31T02:31:26.784Z,100126.87
2023-08-31T02:31:49.283Z,100128.34
2023-08-31T02:32:11.653Z,100126.91
2023-08-31T02:32:34.444Z,100125.14
2023-08-31T02:32:56.962Z,100125.46
2023-08-31T02:33:19.569Z,100124.23
2023-08-31T02:33:42.308Z,100125.67
2023-08-31T02:34:05.131Z,100128.52
2023-08-31T02:34:27.387Z,100127.90
2023-08-31T02:34:50.487Z,100124.66
2023-08-31T02:35:13.812Z,100126.25
2023-08-31T02:35:36.202Z,100121.60
2023-08-31T02:35:59.737Z,100125.38
2023-08-31T02:36:22.156Z,100122.67
2023-08-31T02:36:44.552Z,100126.26
2023-08-31T02:37:06.919Z,100125.55
2023-08-31T02:37:29.248Z,100123.24
2023-08-31T02:37:51.721Z,100120.74
2023-08-31T02:38:14.730Z,100123.30
2023-08-31T02:38:37.025Z,100119.30
2023-08-31T02:38:59.572Z,100120.61
2023-08-31T02:39:22.026Z,100118.19
2023-08-31T02:39:44.322Z,100117.53
2023-08-31T02:40:07.696Z,100119.87
2023-08-31T02:40:31.879Z,100116.57
2023-08-31T02:40:54.283Z,100120.52
2023-08-31T02:41:16.890Z,100118.83
2023-08-31T02:41:39.401Z,100118.38
2023-08-31T02:42:01.880Z,100117.84
2023-08-31T02:42:24.124Z,100121.11
2023-08-31T02:42:46.575Z,100120.62
2023-08-31T02:43:11.071Z,100116.22
2023-08-31T02:43:33.827Z,100116.66
2023-08-31T02:43:56.252Z,100119.58
2023-08-31T02:44:20.356Z,100118.55
2023-08-31T02:44:42.906Z,100120.79
2023-08-31T02:45:05.672Z,100119.97
2023-08-31T02:45:28.165Z,100121.29
2023-08-31T02:45:50.580Z,100121.58
2023-08-31T02:46:12.953Z,100123.90
2023-08-31T02:46:36.621Z,100125.42
2023-08-31T02:46:59.091Z,100123.58
2023-08-31T02:47:22.927Z,100125.98
2023-08-31T02:47:45.442Z,100124.25
2023-08-31T02:48:08.484Z,100127.01
2023-08-31T02:48:31.395Z,100126.95
2023-08-31T02:48:53.905Z,100129.17
2023-08-31T02:49:16.282Z,100129.21
2023-08-31T02:49:38.571Z,100129.60
2023-08-31T02:50:01.223Z,100130.26
2023-08-31T02:50:23.644Z,100132.23
2023-08-31T02:50:45.967Z,100131.73
2023-08-31T02:51:08.310Z,100133.62
2023-08-31T02:51:30.734Z,100133.92
2023-08-31T02:51:53.061Z,100135.42
2023-08-31T02:52:15.530Z,100134.61
2023-08-31T02:52:37.945Z,100134.64
2023-08-31T02:53:00.472Z,100135.62
2023-08-31T02:53:22.826Z,100135.54
2023-08-31T02:53:45.226Z,100139.05
2023-08-31T02:54:07.529Z,100134.73
2023-08-31T02:54:30.025Z,100136.79
2023-08-31T02:54:52.434Z,100139.70
2023-08-31T02:55:14.842Z,100137.90
2023-08-31T02:55:37.221Z,100139.98
2023-08-31T02:55:59.531Z,100139.45
2023-08-31T02:56:22.735Z,100138.98
2023-08-31T02:56:45.229Z,100139.08
2023-08-31T02:57:08.971Z,100137.95
2023-08-31T02:57:31.849Z,100139.43
2023-08-31T02:57:54.572Z,100142.64
2023-08-31T02:58:17.104Z,100138.77
2023-08-31T02:58:40.745Z,100136.88
2023-08-31T02:59:03.504Z,100136.26
2023-08-31T02:59:26.330Z,100137.54
2023-08-31T02:59:51.602Z,100142.54
2023-08-31T03:00:14.382Z,100139.01
2023-08-31T03:00:36.866Z,100139.05
2023-08-31T03:01:09.857Z,100140.14
2023-08-31T03:01:32.415Z,100138.05
2023-08-31T03:01:56.033Z,100139.65
2023-08-31T03:02:18.616Z,100141.82
2023-08-31T03:02:41.004Z,100141.13
2023-08-31T03:03:03.512Z,100142.77
2023-08-31T03:03:26.148Z,100144.00
2023-08-31T03:03:48.586Z,100142.60
2023-08-31T03:04:10.871Z,100143.04
2023-08-31T03:04:33.442Z,100142.67
2023-08-31T03:04:56.778Z,100145.34
2023-08-31T03:05:20.212Z,100142.67
2023-08-31T03:05:42.567Z,100143.70
2023-08-31T03:06:04.905Z,100144.64
2023-08-31T03:06:27.376Z,100146.09
2023-08-31T03:06:49.776Z,100149.20
2023-08-31T03:07:15.039Z,100148.83
2023-08-31T03:07:37.994Z,100147.97
2023-08-31T03:08:00.447Z,100147.68
2023-08-31T03:08:22.947Z,100149.48
2023-08-31T03:08:45.375Z,100151.82
2023-08-31T03:09:07.648Z,100150.29
2023-08-31T03:09:29.937Z,100150.08
2023-08-31T03:09:52.326Z,100151.56
2023-08-31T03:10:14.954Z,100147.29
2023-08-31T03:10:37.742Z,100151.36
2023-08-31T03:11:00.450Z,100151.92
2023-08-31T03:11:22.760Z,100152.22
2023-08-31T03:11:45.141Z,100152.75
2023-08-31T03:12:07.695Z,100151.48
2023-08-31T03:12:30.077Z,100153.81
2023-08-31T03:12:52.369Z,100156.30
2023-08-31T03:13:14.907Z,100155.52
2023-08-31T03:13:37.545Z,100156.55
2023-08-31T03:14:00.249Z,100157.78
2023-08-31T03:14:23.464Z,100158.14
2023-08-31T03:14:45.794Z,100159.91
2023-08-31T03:15:08.674Z,100158.21
2023-08-31T03:15:33.326Z,100159.27
2023-08-31T03:15:57.605Z,100160.97
2023-08-31T03:16:20.587Z,100164.20
2023-08-31T03:16:43.013Z,100161.59
2023-08-31T03:17:06.185Z,100162.80
2023-08-31T03:17:28.596Z,100162.52
2023-08-31T03:17:51.011Z,100165.05
2023-08-31T03:18:13.380Z,100165.84
2023-08-31T03:18:35.668Z,100165.27
2023-08-31T03:18:57.998Z,100167.02
2023-08-31T03:19:20.368Z,100164.95
2023-08-31T03:19:42.643Z,100169.84
2023-08-31T03:20:07.529Z,100169.15
2023-08-31T03:20:30.124Z,100169.05
2023-08-31T03:20:52.519Z,100167.69
2023-08-31T03:21:14.782Z,100169.01
2023-08-31T03:21:37.034Z,100166.91
2023-08-31T03:21:59.310Z,100167.44
2023-08-31T03:22:21.606Z,100168.31
2023-08-31T03:22:43.897Z,100169.06
2023-08-31T03:23:06.501Z,100171.46
2023-08-31T03:23:30.179Z,100169.08
2023-08-31T03:23:53.448Z,100173.59
2023-08-31T03:24:15.769Z,100170.67
2023-08-31T03:24:38.167Z,100168.77
2023-08-31T03:25:00.634Z,100166.91
2023-08-31T03:25:23.274Z,100171.69
2023-08-31T03:25:45.703Z,100171.59
2023-08-31T03:26:10.958Z,100168.88
2023-08-31T03:26:35.089Z,100170.16
2023-08-31T03:26:57.363Z,100169.89
2023-08-31T03:27:20.680Z,100170.17
2023-08-31T03:27:43.088Z,100173.67
2023-08-31T03:28:05.478Z,100170.05
2023-08-31T03:28:27.839Z,100172.81
2023-08-31T03:28:50.245Z,100172.61
2023-08-31T03:29:12.555Z,100171.50
2023-08-31T03:29:35.757Z,100174.71
2023-08-31T03:29:58.460Z,100170.35
2023-08-31T03:30:20.858Z,100173.63
2023-08-31T03:30:46.550Z,100174.28
2023-08-31T03:31:08.997Z,100175.32
2023-08-31T03:31:32.479Z,100176.05
2023-08-31T03:31:55.055Z,100177.35
2023-08-31T03:32:18.272Z,100175.42
2023-08-31T03:32:40.769Z,100175.98
2023-08-31T03:33:03.476Z,100179.95
2023-08-31T03:33:25.906Z,100181.14
2023-08-31T03:33:48.171Z,100176.23
2023-08-31T03:34:10.468Z,100177.89
2023-08-31T03:34:32.726Z,100176.39
2023-08-31T03:34:55.161Z,100179.14
2023-08-31T03:35:17.656Z,100176.55
2023-08-31T03:35:40.060Z,100182.10
2023-08-31T03:36:05.656Z,100177.40
2023-08-31T03:36:28.500Z,100183.48
2023-08-31T03:36:51.861Z,100180.55
2023-08-31T03:37:14.488Z,100178.62
2023-08-31T03:37:36.857Z,100181.86
2023-08-31T03:37:59.151Z,100183.87
2023-08-31T03:38:23.086Z,100184.29
2023-08-31T03:38:45.411Z,100183.55
2023-08-31T03:39:07.778Z,100183.95
2023-08-31T03:39:30.173Z,100185.59
2023-08-31T03:39:52.471Z,100184.86
2023-08-31T03:40:14.978Z,100181.52
2023-08-31T03:40:37.474Z,100183.66
2023-08-31T03:40:59.843Z,100185.46
2023-08-31T03:41:22.209Z,100181.71
2023-08-31T03:41:44.505Z,100186.04
2023-08-31T03:42:06.957Z,100184.05
2023-08-31T03:42:29.567Z,100180.28
2023-08-31T03:42:52.070Z,100179.21
2023-08-31T03:43:14.601Z,100181.15
2023-08-31T03:43:37.290Z,100181.17
2023-08-31T03:44:00.406Z,100183.48
2023-08-31T03:44:22.963Z,100181.31
2023-08-31T03:44:46.001Z,100181.27
2023-08-31T03:45:08.738Z,100182.95
2023-08-31T03:45:31.103Z,100179.23
2023-08-31T03:45:59.382Z,100181.94
2023-08-31T03:46:21.752Z,100180.87
2023-08-31T03:46:44.335Z,100180.05
2023-08-31T03:47:06.832Z,100179.80
2023-08-31T03:47:29.769Z,100176.20
2023-08-31T03:47:52.260Z,100177.70
2023-08-31T03:48:15.609Z,100175.31
2023-08-31T03:48:38.372Z,100175.29
2023-08-31T03:49:01.489Z,100179.56
2023-08-31T03:49:23.745Z,100179.48
2023-08-31T03:49:46.286Z,100179.61
2023-08-31T03:50:09.820Z,100177.73
2023-08-31T03:50:32.137Z,100180.16
2023-08-31T03:50:54.651Z,100178.31
2023-08-31T03:51:18.003Z,100175.93
2023-08-31T03:51:41.239Z,100176.35
2023-08-31T03:52:03.880Z,100177.17
2023-08-31T03:52:26.549Z,100178.30
2023-08-31T03:52:48.947Z,100175.02
2023-08-31T03:53:11.517Z,100174.85
2023-08-31T03:53:34.162Z,100172.92
2023-08-31T03:53:58.029Z,100172.55
2023-08-31T03:54:21.021Z,100173.67
2023-08-31T03:54:43.489Z,100177.48
2023-08-31T03:55:06.708Z,100170.52
2023-08-31T03:55:29.309Z,100171.80
2023-08-31T03:55:52.114Z,100174.59
2023-08-31T03:56:15.131Z,100174.73
2023-08-31T03:56:37.945Z,100172.19
2023-08-31T03:57:00.334Z,100171.02
2023-08-31T03:57:22.898Z,100170.52
2023-08-31T03:57:46.173Z,100168.80
2023-08-31T03:58:14.379Z,100173.61
2023-08-31T03:58:37.625Z,100172.02
2023-08-31T03:58:59.994Z,100170.92
2023-08-31T03:59:22.392Z,100171.66
2023-08-31T03:59:44.719Z,100168.71
2023-08-31T04:00:11.198Z,100169.86
2023-08-31T04:00:37.666Z,100173.09
2023-08-31T04:01:00.586Z,100176.54
2023-08-31T04:01:23.043Z,100174.00
2023-08-31T04:01:45.723Z,100169.11
2023-08-31T04:02:08.924Z,100173.96
2023-08-31T04:02:32.653Z,100175.08
2023-08-31T04:02:55.348Z,100175.99
2023-08-31T04:03:19.333Z,100175.76
2023-08-31T04:03:43.549Z,100177.85
2023-08-31T04:04:07.063Z,100176.84
2023-08-31T04:04:29.524Z,100176.23
2023-08-31T04:04:51.820Z,100178.12
2023-08-31T04:05:16.371Z,100179.96
2023-08-31T04:05:39.952Z,100177.39
2023-08-31T04:06:02.427Z,100179.29
2023-08-31T04:06:24.894Z,100178.14
2023-08-31T04:06:47.312Z,100179.46
2023-08-31T04:07:09.789Z,100177.69
2023-08-31T04:07:33.313Z,100177.45
2023-08-31T04:07:57.531Z,100174.30
2023-08-31T04:08:19.890Z,100173.81
2023-08-31T04:08:42.350Z,100169.17
2023-08-31T04:09:05.662Z,100167.70
2023-08-31T04:09:29.807Z,100166.64
2023-08-31T04:09:52.300Z,100165.98
2023-08-31T04:10:15.327Z,100169.33
2023-08-31T04:10:38.017Z,100165.10
2023-08-31T04:11:00.361Z,100166.88
2023-08-31T04:11:23.328Z,100166.13
2023-08-31T04:11:45.602Z,100168.50
2023-08-31T04:12:08.019Z,100167.63
2023-08-31T04:12:31.826Z,100165.01
2023-08-31T04:12:55.367Z,100167.16
2023-08-31T04:13:17.792Z,100166.40
2023-08-31T04:13:40.053Z,100166.77
2023-08-31T04:14:02.484Z,100166.81
2023-08-31T04:14:28.953Z,100165.54
2023-08-31T04:14:51.215Z,100165.02
2023-08-31T04:15:14.911Z,100165.45
2023-08-31T04:15:37.688Z,100166.85
2023-08-31T04:16:00.308Z,100168.29
2023-08-31T04:16:22.777Z,100166.77
2023-08-31T04:16:45.625Z,100165.91
2023-08-31T04:17:08.158Z,100168.46
2023-08-31T04:17:31.985Z,100166.38
2023-08-31T04:17:54.546Z,100167.14
2023-08-31T04:18:17.073Z,100168.13
2023-08-31T04:18:39.643Z,100167.27
2023-08-31T04:19:01.938Z,100165.20
2023-08-31T04:19:24.245Z,100167.36
2023-08-31T04:19:46.620Z,100168.52
2023-08-31T04:20:09.801Z,100166.74
2023-08-31T04:20:33.974Z,100164.00
2023-08-31T04:20:56.379Z,100162.77
2023-08-31T04:21:19.651Z,100164.71
2023-08-31T04:21:41.901Z,100163.15
2023-08-31T04:22:05.871Z,100162.63
2023-08-31T04:22:28.328Z,100165.63
2023-08-31T04:22:50.716Z,100164.08
2023-08-31T04:23:13.262Z,100167.54
2023-08-31T04:23:36.026Z,100163.76
2023-08-31T04:24:01.180Z,100163.06
2023-08-31T04:24:23.604Z,100165.74
2023-08-31T04:24:46.081Z,100164.89
2023-08-31T04:25:08.786Z,100166.91
2023-08-31T04:25:34.666Z,100165.52
2023-08-31T04:25:59.014Z,100161.61
2023-08-31T04:26:21.722Z,100167.70
2023-08-31T04:26:44.315Z,100163.80
2023-08-31T04:27:06.709Z,100169.23
2023-08-31T04:27:31.181Z,100167.39
2023-08-31T04:27:53.586Z,100164.80
2023-08-31T04:28:15.863Z,100162.66